Time;durP1;ratioP1;P1;durP2;ratioP2;P2;SDS_P1;SDS_P2;PMS_P1;PMS_P2;Temp;Humidity;BMP_temperature;BMP_pressure;BME280_temperature;BME280_humidity;BME280_pressure;Samples;Min_cycle;Max_cycle;Signal;HPM_P1;HPM_P2
2022/04/12 00:09:41;;;;;;;14.07;6.38;;;6.90;99.90;;;;;;5343904;22;20213;-91
2022/04/12 00:12:27;;;;;;;8.38;6.28;;;;;;;;;;5069378;28;20071;-91
2022/04/12 00:15:13;;;;;;;11.13;6.15;;;;;;;;;;5073647;28;20035;-90
2022/04/12 00:21:05;;;;;;;10.25;6.25;;;;;;;;;;5075237;28;20124;-91
2022/04/12 00:23:49;;;;;;;9.27;6.13;;;;;;;;;;5074103;28;20162;-90
2022/04/12 00:26:35;;;;;;;9.93;6.05;;;;;;;;;;5076608;28;20040;-91
2022/04/12 00:29:20;;;;;;;10.10;6.00;;;;;;;;;;5067371;28;20135;-91
2022/04/12 00:32:05;;;;;;;12.77;6.60;;;;;;;;;;5081502;28;20038;-90
2022/04/12 00:34:52;;;;;;;10.00;5.93;;;;;;;;;;5081943;28;20043;-91
2022/04/12 00:37:37;;;;;;;11.18;6.20;;;;;;;;;;5082094;28;20081;-90
2022/04/12 00:40:24;;;;;;;13.70;7.07;;;;;;;;;;5081483;28;20043;-89
2022/04/12 00:43:11;;;;;;;13.88;7.47;;;;;;;;;;5081020;28;20392;-89
2022/04/12 00:46:00;;;;;;;11.00;6.65;;;;;;;;;;5081588;28;20090;-90
2022/04/12 00:48:44;;;;;;;11.43;6.57;;;;;;;;;;5081454;28;20545;-90
2022/04/12 00:51:34;;;;;;;13.63;6.53;;;;;;;;;;5083338;28;20050;-92
2022/04/12 00:54:19;;;;;;;10.30;7.00;;;;;;;;;;5081727;28;20058;-91
2022/04/12 00:57:07;;;;;;;10.68;6.45;;;;;;;;;;5074005;28;20430;-90
2022/04/12 00:59:54;;;;;;;13.05;8.20;;;;;;;;;;5072495;28;20090;-91
2022/04/12 01:02:39;;;;;;;9.20;6.20;;;;;;;;;;5071866;28;20047;-91
2022/04/12 01:05:23;;;;;;;13.02;6.85;;;;;;;;;;5073357;28;20036;-91
2022/04/12 01:08:08;;;;;;;13.20;6.95;;;;;;;;;;5073003;28;20586;-91
2022/04/12 01:10:59;;;;;;;14.48;7.25;;;;;;;;;;5072678;28;20060;-91
2022/04/12 01:13:46;;;;;;;12.52;8.15;;;;;;;;;;5052106;28;20497;-90
2022/04/12 01:16:36;;;;;;;12.15;6.75;;;;;;;;;;5038647;28;20090;-93
2022/04/12 01:19:21;;;;;;;13.52;6.93;;;;;;;;;;5053130;28;20087;-90
2022/04/12 01:22:06;;;;;;;11.32;7.35;;;;;;;;;;5053134;28;20087;-91
2022/04/12 01:24:51;;;;;;;11.15;6.57;;;;;;;;;;5052223;28;20044;-91
2022/04/12 01:27:36;;;;;;;13.45;7.18;;;;;;;;;;5052362;28;20492;-90
2022/04/12 01:30:21;;;;;;;13.30;7.50;;;;;;;;;;5052558;28;20051;-90
2022/04/12 01:33:06;;;;;;;12.77;7.80;;;;;;;;;;5052467;28;20036;-90
2022/04/12 01:35:50;;;;;;;15.27;8.20;;;;;;;;;;5051893;28;20036;-90
2022/04/12 01:38:35;;;;;;;11.05;7.38;;;;;;;;;;5051794;28;20127;-92
2022/04/12 01:41:20;;;;;;;11.85;8.15;;;;;;;;;;5052336;28;20075;-91
2022/04/12 01:44:07;;;;;;;13.05;8.15;;;;;;;;;;5052289;28;20083;-89
2022/04/12 01:46:52;;;;;;;11.30;7.82;;;;;;;;;;5038210;28;20040;-91
2022/04/12 01:49:37;;;;;;;13.25;7.97;;;;;;;;;;5051557;28;20110;-92
2022/04/12 01:52:23;;;;;;;14.30;8.45;;;;;;;;;;5051862;28;20040;-91
2022/04/12 01:55:09;;;;;;;10.45;7.72;;;;;;;;;;5051983;28;20113;-91
2022/04/12 01:57:53;;;;;;;13.38;8.27;;;;;;;;;;5051453;28;20036;-90
2022/04/12 02:00:41;;;;;;;14.40;7.68;;;;;;;;;;5051422;28;20071;-92
2022/04/12 02:03:26;;;;;;;15.77;8.80;;;;;;;;;;5038200;28;20071;-89
2022/04/12 02:06:11;;;;;;;14.90;8.23;;;;;;;;;;5048914;28;20090;-90
2022/04/12 02:08:55;;;;;;;13.80;9.00;;;;;;;;;;5071089;28;20054;-90
2022/04/12 02:11:40;;;;;;;19.25;9.73;;;;;;;;;;5071055;28;20515;-91
2022/04/12 02:14:24;;;;;;;12.85;8.52;;;;;;;;;;5071334;28;20098;-89
2022/04/12 02:17:09;;;;;;;13.88;9.25;;;;;;;;;;5071636;28;20389;-89
2022/04/12 02:19:56;;;;;;;17.52;8.63;;;;;;;;;;5071606;28;20090;-90
2022/04/12 02:22:41;;;;;;;13.32;8.55;;;;;;;;;;5071314;28;20515;-91
2022/04/12 02:25:29;;;;;;;15.60;9.15;;;;;;;;;;5071600;28;20078;-90
2022/04/12 02:28:15;;;;;;;15.32;8.98;;;;;;;;;;5071654;28;20078;-91
2022/04/12 02:31:00;;;;;;;13.52;9.52;;;;;;;;;;5071473;28;20043;-90
2022/04/12 02:33:46;;;;;;;13.07;8.68;;;;;;;;;;5071209;28;20039;-91
2022/04/12 02:36:33;;;;;;;14.15;8.25;;;;;;;;;;5071839;28;20107;-91
2022/04/12 02:39:17;;;;;;;13.35;8.70;;;;;;;;;;5071912;28;20043;-90
2022/04/12 02:42:05;;;;;;;12.82;8.02;;;;;;;;;;5071961;28;20174;-92
2022/04/12 02:44:50;;;;;;;15.02;9.30;;;;;;;;;;5071492;28;20063;-92
2022/04/12 02:47:38;;;;;;;14.90;8.45;;;;;;;;;;5071536;28;20102;-90
2022/04/12 02:50:30;;;;;;;13.95;9.05;;;;;;;;;;5071754;28;20066;-92
2022/04/12 02:53:38;;;;;;;14.23;8.77;;;;;;;;;;5071793;28;20059;-93
2022/04/12 02:56:25;;;;;;;15.57;9.50;;;;;;;;;;5072043;28;20427;-93
2022/04/12 02:59:10;;;;;;;15.00;9.02;;;;;;;;;;5071775;28;20071;-92
2022/04/12 03:01:54;;;;;;;14.00;8.88;;;;;;;;;;5071363;28;20062;-92
2022/04/12 03:04:40;;;;;;;16.35;10.40;;;;;;;;;;5071575;28;20043;-90
2022/04/12 03:07:25;;;;;;;13.05;8.48;;;;;;;;;;5071506;28;20090;-91
2022/04/12 03:10:12;;;;;;;13.07;9.52;;;;;;;;;;5071214;28;20067;-91
2022/04/12 03:12:59;;;;;;;17.95;10.23;;;;;;;;;;5071420;28;20040;-91
2022/04/12 03:15:46;;;;;;;17.33;11.43;;;;;;;;;;5071650;28;20503;-91
2022/04/12 03:18:33;;;;;;;12.27;9.55;;;;;;;;;;5072040;28;20051;-91
2022/04/12 03:21:21;;;;;;;17.80;9.35;;;;;;;;;;5071807;28;20044;-91
2022/04/12 03:24:06;;;;;;;14.75;10.02;;;;;;;;;;5071871;28;20127;-91
2022/04/12 03:26:51;;;;;;;18.45;9.80;;;;;;;;;;5084655;28;20059;-94
2022/04/12 03:29:36;;;;;;;15.65;9.77;;;;;;;;;;5091553;28;20063;-90
2022/04/12 03:32:22;;;;;;;18.35;9.60;;;;;;;;;;5088751;28;20240;-90
2022/04/12 03:35:08;;;;;;;17.02;9.88;;;;;;;;;;5084963;28;20116;-90
2022/04/12 03:37:52;;;;;;;14.52;10.27;;;;;;;;;;5085989;28;20035;-92
2022/04/12 03:40:37;;;;;;;13.57;9.10;;;;;;;;;;5085107;28;20042;-91
2022/04/12 03:48:54;;;;;;;16.25;10.05;;;;;;;;;;5045164;22;20308;-89
2022/04/12 03:51:41;;;;;;;17.60;10.85;;;;;;;;;;4961848;28;20050;-90
2022/04/12 03:54:28;;;;;;;14.90;10.07;;;;;;;;;;5002616;28;20037;-90
2022/04/12 03:57:13;;;;;;;14.80;9.98;;;;;;;;;;4989528;28;20442;-90
2022/04/12 04:00:01;;;;;;;17.60;9.82;;;;;;;;;;5003314;28;20061;-89
2022/04/12 04:02:46;;;;;;;16.20;10.82;;;;;;;;;;4989071;28;20050;-89
2022/04/12 04:05:30;;;;;;;14.68;10.13;;;;;;;;;;5002796;28;20057;-91
2022/04/12 04:08:18;;;;;;;15.85;10.73;;;;;;;;;;5003390;28;20533;-90
2022/04/12 04:11:02;;;;;;;12.63;9.57;;;;;;;;;;5003145;28;20038;-91
2022/04/12 04:13:47;;;;;;;13.20;9.52;;;;;;;;;;5003307;28;20046;-91
2022/04/12 04:16:34;;;;;;;16.30;9.63;;;;;;;;;;4976698;28;20033;-90
2022/04/12 04:19:18;;;;;;;17.50;10.18;;;;;;;;;;4978885;28;20070;-88
2022/04/12 04:22:03;;;;;;;14.80;9.48;;;;;;;;;;5024446;28;20390;-89
2022/04/12 04:25:21;;;;;;;13.63;9.80;;;5.00;99.90;;;;;;4995081;28;20044;-91
2022/04/12 04:28:22;;;;;;;18.10;10.77;;;;;;;;;;4981255;28;20089;-91
2022/04/12 04:32:43;;;;;;;;;;;;;;;;;;;;;
2022/04/12 04:35:28;;;;;;;14.93;9.88;;;;;;;;;;4993318;28;20118;-92
2022/04/12 04:38:12;;;;;;;16.48;9.93;;;;;;;;;;4995346;28;20117;-90
2022/04/12 04:40:56;;;;;;;14.35;9.73;;;;;;;;;;4994204;28;20049;-89
2022/04/12 04:43:46;;;;;;;20.92;10.38;;;;;;;;;;4994230;28;20157;-90
2022/04/12 04:46:46;;;;;;;14.32;9.52;;;;;;;;;;4995972;28;20042;-91
2022/04/12 04:49:37;;;;;;;14.43;9.85;;;;;;;;;;5013433;28;20073;-88
2022/04/12 04:52:23;;;;;;;15.75;9.50;;;;;;;;;;5013795;28;20125;-90
2022/04/12 04:55:08;;;;;;;17.88;10.85;;;;;;;;;;5013624;28;20072;-90
2022/04/12 04:58:00;;;;;;;18.98;10.15;;;;;;;;;;5013488;28;20126;-91
2022/04/12 05:00:45;;;;;;;14.90;10.50;;;;;;;;;;4992416;28;20092;-91
2022/04/12 05:03:30;;;;;;;15.65;10.55;;;;;;;;;;4993537;28;20069;-92
2022/04/12 05:06:18;;;;;;;16.63;9.95;;;;;;;;;;4993782;28;20033;-89
2022/04/12 05:09:06;;;;;;;16.00;10.88;;;;;;;;;;4993566;28;20072;-89
2022/04/12 05:11:50;;;;;;;18.60;10.73;;;;;;;;;;4993367;28;20275;-90
2022/04/12 05:14:35;;;;;;;14.23;10.25;;;;;;;;;;4993500;28;20508;-89
2022/04/12 05:17:25;;;;;;;16.42;10.60;;;;;;;;;;4993924;28;20045;-90
2022/04/12 05:20:13;;;;;;;18.02;11.35;;;;;;;;;;4993817;28;20124;-89
2022/04/12 05:22:58;;;;;;;16.23;10.95;;;;;;;;;;4997371;28;20044;-91
2022/04/12 05:25:42;;;;;;;18.30;11.45;;;;;;;;;;5001179;28;20061;-88
2022/04/12 05:28:27;;;;;;;15.25;10.35;;;;;;;;;;4978695;28;20145;-85
2022/04/12 05:31:17;;;;;;;15.73;10.98;;;;;;;;;;4984661;28;20140;-88
2022/04/12 05:34:02;;;;;;;18.08;9.88;;;;;;;;;;4991545;28;20042;-89
2022/04/12 05:36:46;;;;;;;13.80;9.98;;;;;;;;;;5006079;28;20070;-88
2022/04/12 05:39:32;;;;;;;15.75;10.63;;;;;;;;;;4992754;28;20076;-88
2022/04/12 05:42:16;;;;;;;15.10;10.80;;;;;;;;;;4981356;28;20139;-89
2022/04/12 05:45:01;;;;;;;18.73;11.00;;;;;;;;;;5000921;28;20070;-89
2022/04/12 05:47:49;;;;;;;14.80;9.25;;;;;;;;;;5020768;28;20101;-89
2022/04/12 05:50:37;;;;;;;16.50;10.88;;;;;;;;;;5000870;28;20093;-89
2022/04/12 05:53:22;;;;;;;16.15;10.05;;;;;;;;;;5005554;28;20582;-89
2022/04/12 05:56:07;;;;;;;14.75;10.18;;;;;;;;;;5012119;28;20115;-90
2022/04/12 05:58:51;;;;;;;18.23;10.45;;;;;;;;;;4993777;28;20053;-88
2022/04/12 06:01:38;;;;;;;17.00;10.82;;;;;;;;;;4991109;28;20121;-89
2022/04/12 06:04:25;;;;;;;15.15;10.30;;;;;;;;;;4999555;28;20022;-90
2022/04/12 06:07:10;;;;;;;16.55;10.48;;;;;;;;;;5004295;28;20057;-90
2022/04/12 06:09:55;;;;;;;17.55;10.50;;;;;;;;;;4997674;28;20045;-89
2022/04/12 06:12:40;;;;;;;18.05;10.10;;;;;;;;;;5007903;28;20041;-92
2022/04/12 06:15:25;;;;;;;14.90;10.25;;;;;;;;;;4992402;28;20064;-89
2022/04/12 06:18:10;;;;;;;12.95;9.05;;;;;;;;;;4993920;28;20094;-89
2022/04/12 06:20:55;;;;;;;16.63;11.15;;;;;;;;;;4998371;28;20120;-89
2022/04/12 06:23:39;;;;;;;15.20;9.73;;;;;;;;;;4995101;28;20036;-90
2022/04/12 06:26:26;;;;;;;14.45;9.05;;;;;;;;;;4998311;28;20065;-89
2022/04/12 06:29:11;;;;;;;13.05;9.77;;;;;;;;;;4984143;28;20446;-90
2022/04/12 06:31:56;;;;;;;13.90;8.95;;;;;;;;;;5008734;28;20041;-89
2022/04/12 06:34:43;;;;;;;18.77;9.50;;;;;;;;;;4996787;28;20057;-90
2022/04/12 06:37:28;;;;;;;15.73;9.30;;;;;;;;;;4981824;28;20046;-92
2022/04/12 06:40:19;;;;;;;15.82;9.18;;;;;;;;;;4992575;28;20147;-90
2022/04/12 06:43:07;;;;;;;14.23;9.45;;;;;;;;;;5005594;28;20065;-88
2022/04/12 06:45:52;;;;;;;14.73;9.50;;;;;;;;;;5011636;28;20131;-90
2022/04/12 06:48:50;;;;;;;13.82;9.23;;;;;;;;;;4997620;28;20571;-89
2022/04/12 06:51:35;;;;;;;15.73;9.60;;;;;;;;;;5011407;28;20060;-89
2022/04/12 06:54:19;;;;;;;14.55;9.80;;;;;;;;;;4996390;28;20041;-90
2022/04/12 06:57:07;;;;;;;13.23;8.38;;;;;;;;;;4991945;28;20628;-90
2022/04/12 06:59:52;;;;;;;17.27;10.07;;;;;;;;;;4978498;28;20066;-87
2022/04/12 07:02:42;;;;;;;15.60;9.40;;;;;;;;;;4996005;28;20410;-89
2022/04/12 07:05:30;;;;;;;20.40;9.38;;;;;;;;;;4996386;28;20041;-90
2022/04/12 07:08:22;;;;;;;14.95;9.52;;;;;;;;;;4996447;28;20493;-89
2022/04/12 07:11:06;;;;;;;14.15;9.15;;;;;;;;;;4981703;28;20418;-86
2022/04/12 07:13:51;;;;;;;16.65;9.80;;;;;;;;;;4999155;28;20045;-88
2022/04/12 07:16:35;;;;;;;16.13;9.38;;;;;;;;;;4997350;28;20157;-87
2022/04/12 07:19:22;;;;;;;14.57;8.48;;;;;;;;;;4997545;28;20041;-88
2022/04/12 07:22:09;;;;;;;13.93;9.60;;;;;;;;;;4982707;28;20117;-90
2022/04/12 07:24:55;;;;;;;13.60;9.18;;;;;;;;;;5000093;28;20453;-87
2022/04/12 07:27:46;;;;;;;14.63;8.70;;;;;;;;;;4997990;28;20112;-87
2022/04/12 07:30:31;;;;;;;15.38;8.68;;;;;;;;;;4988076;28;20125;-88
2022/04/12 07:33:20;;;;;;;14.25;8.45;;;;;;;;;;4998731;28;20038;-88
2022/04/12 07:36:05;;;;;;;15.50;9.45;;;;;;;;;;4994427;28;20033;-88
2022/04/12 07:39:01;;;;;;;15.32;8.68;;;;;;;;;;4997734;28;20088;-91
2022/04/12 07:41:47;;;;;;;16.20;8.68;;;;;;;;;;4982394;28;20089;-87
2022/04/12 07:44:34;;;;;;;12.40;7.97;;;;;;;;;;5031242;28;20085;-87
2022/04/12 07:47:19;;;;;;;13.93;8.50;;;;;;;;;;5013204;28;20068;-88
2022/04/12 07:50:10;;;;;;;14.80;8.40;;;;;;;;;;4984540;28;20141;-87
2022/04/12 07:52:55;;;;;;;11.25;8.18;;;;;;;;;;4978588;28;20134;-87
2022/04/12 07:55:40;;;;;;;12.48;7.43;;;;;;;;;;4978646;28;20545;-88
2022/04/12 07:58:24;;;;;;;14.13;8.38;;;;;;;;;;4991060;28;20162;-88
2022/04/12 08:01:11;;;;;;;14.85;7.90;;;;;;;;;;4999690;28;20045;-87
2022/04/12 08:03:59;;;;;;;12.88;8.45;;;;;;;;;;4997109;28;20041;-89
2022/04/12 08:06:46;;;;;;;13.93;8.02;;;;;;;;;;5000609;28;20037;-89
2022/04/12 08:09:34;;;;;;;13.02;8.20;;;;;;;;;;4998903;28;20121;-88
2022/04/12 08:12:21;;;;;;;12.15;7.65;;;;;;;;;;4999559;28;20094;-88
2022/04/12 08:15:06;;;;;;;14.20;8.57;;;;;;;;;;4995759;28;20058;-89
2022/04/12 08:17:54;;;;;;;13.00;7.95;;;;;;;;;;4994386;28;20545;-90
2022/04/12 08:20:39;;;;;;;10.77;7.93;;;;;;;;;;4994281;28;20045;-88
2022/04/12 08:23:27;;;;;;;12.13;7.85;;;;;;;;;;4994249;28;20088;-89
2022/04/12 08:26:13;;;;;;;15.00;7.80;;;;;;;;;;4993489;28;20033;-88
2022/04/12 08:29:06;;;;;;;12.07;7.97;;;;;;;;;;4993825;28;20052;-91
2022/04/12 08:31:53;;;;;;;11.35;7.20;;;;;;;;;;4976140;28;20041;-90
2022/04/12 08:34:38;;;;;;;10.68;7.03;;;;;;;;;;4994004;28;20045;-89
2022/04/12 08:37:25;;;;;;;12.00;7.15;;;;;;;;;;4993784;28;20077;-88
2022/04/12 08:40:14;;;;;;;11.20;6.75;;;;;;;;;;4993435;28;20045;-90
2022/04/12 08:42:59;;;;;;;11.05;7.10;;;;;;;;;;4993919;28;20045;-93
2022/04/12 08:45:54;;;;;;;9.23;6.80;;;14.00;99.20;;;;;;4975390;28;20037;-88
2022/04/12 08:48:39;;;;;;;12.70;8.25;;;;;;;;;;4980405;28;20065;-91
2022/04/12 08:51:27;;;;;;;11.50;7.10;;;;;;;;;;5002544;28;20038;-88
2022/04/12 08:54:12;;;;;;;10.48;6.82;;;;;;;;;;4993026;28;20037;-90
2022/04/12 08:56:57;;;;;;;11.95;8.35;;;;;;;;;;4978603;28;20080;-89
2022/04/12 08:59:42;;;;;;;10.88;6.82;;;;;;;;;;4996723;28;20045;-88
2022/04/12 09:02:29;;;;;;;12.02;8.02;;;;;;;;;;4993885;28;20060;-88
2022/04/12 09:05:14;;;;;;;9.25;6.90;;;;;;;;;;4973597;28;20046;-89
2022/04/12 09:08:04;;;;;;;11.63;7.32;;;;;;;;;;5001069;28;20052;-88
2022/04/12 09:10:55;;;;;;;12.32;6.70;;;;;;;;;;4996710;28;20056;-91
2022/04/12 09:13:40;;;;;;;13.45;7.22;;;;;;;;;;4990403;28;20101;-89
2022/04/12 09:16:25;;;;;;;10.93;7.88;;;;;;;;;;4971698;28;20059;-88
2022/04/12 09:19:09;;;;;;;11.98;7.47;;;;;;;;;;4985153;28;20057;-88
2022/04/12 09:21:54;;;;;;;12.65;7.93;;;;;;;;;;4991371;28;20057;-88
2022/04/12 09:24:50;;;;;;;12.15;7.70;;;15.80;95.40;;;;;;4990915;28;20100;-89
2022/04/12 09:27:38;;;;;;;12.50;7.50;;;;;;;;;;4992588;28;20069;-88
2022/04/12 09:30:27;;;;;;;10.20;7.10;;;;;;;;;;4990984;28;20589;-87
2022/04/12 09:33:12;;;;;;;9.77;6.88;;;;;;;;;;4958223;28;20093;-88
2022/04/12 09:35:56;;;;;;;11.75;7.68;;;;;;;;;;4972258;28;20513;-88
2022/04/12 09:38:45;;;;;;;11.27;6.95;;;16.60;94.20;;;;;;4981303;28;20112;-89
2022/04/12 09:41:30;;;;;;;12.40;8.38;;;;;;;;;;4992050;28;20041;-89
2022/04/12 09:44:18;;;;;;;11.88;7.47;;;;;;;;;;4990632;28;20038;-89
2022/04/12 09:47:02;;;;;;;10.82;6.57;;;;;;;;;;4989210;28;20032;-90
2022/04/12 09:49:56;;;;;;;12.35;7.10;;;;;;;;;;4990428;28;20088;-86
2022/04/12 09:52:54;;;;;;;10.90;7.65;;;16.60;92.20;;;;;;4979775;28;20393;-90
2022/04/12 09:55:45;;;;;;;13.18;8.32;;;;;;;;;;4992110;28;20038;-88
2022/04/12 09:58:34;;;;;;;12.77;7.60;;;;;;;;;;4981221;28;20045;-88
2022/04/12 10:01:19;;;;;;;12.63;8.20;;;16.90;91.50;;;;;;5008744;28;20104;-88
2022/04/12 10:04:11;;;;;;;14.15;8.40;;;;;;;;;;4997211;28;20052;-88
2022/04/12 10:06:56;;;;;;;11.93;8.43;;;;;;;;;;5010217;28;20450;-88
2022/04/12 10:09:44;;;;;;;10.85;7.28;;;;;;;;;;5010028;28;20113;-89
2022/04/12 10:12:29;;;;;;;12.90;7.45;;;;;;;;;;5009643;28;20037;-89
2022/04/12 10:15:21;;;;;;;11.95;8.05;;;;;;;;;;4990616;28;20057;-90
2022/04/12 10:18:17;;;;;;;10.45;7.43;;;;;;;;;;4977745;28;20497;-89
2022/04/12 10:21:02;;;;;;;9.30;6.97;;;;;;;;;;4977657;28;20548;-88
2022/04/12 10:23:55;;;;;;;14.10;7.05;;;17.30;90.20;;;;;;4986353;28;20049;-87
2022/04/12 10:26:41;;;;;;;8.65;7.22;;;;;;;;;;4991629;28;20029;-89
2022/04/12 10:29:30;;;;;;;12.18;6.97;;;;;;;;;;4991208;28;20041;-88
2022/04/12 10:32:17;;;;;;;14.45;7.40;;;;;;;;;;4989151;28;20046;-90
2022/04/12 10:35:04;;;;;;;12.27;7.72;;;;;;;;;;4991322;28;20124;-88
2022/04/12 10:37:56;;;;;;;12.00;7.10;;;;;;;;;;4994858;28;20045;-89
2022/04/12 10:40:47;;;;;;;14.13;7.60;;;;;;;;;;4994310;28;20074;-87
2022/04/12 10:43:36;;;;;;;12.27;7.00;;;;;;;;;;4992854;28;20108;-87
2022/04/12 10:46:21;;;;;;;14.45;7.53;;;;;;;;;;4991623;28;20045;-88
2022/04/12 10:49:12;;;;;;;13.60;7.97;;;;;;;;;;4995474;28;20219;-87
2022/04/12 10:52:00;;;;;;;12.05;7.10;;;;;;;;;;4995484;28;20050;-87
2022/04/12 10:54:47;;;;;;;11.05;6.28;;;;;;;;;;4995697;28;20085;-86
2022/04/12 10:57:36;;;;;;;12.73;7.03;;;;;;;;;;4995998;28;20126;-87
2022/04/12 11:00:22;;;;;;;11.55;8.18;;;;;;;;;;4995791;28;20359;-85
2022/04/12 11:03:07;;;;;;;11.63;7.72;;;;;;;;;;4995119;28;20057;-84
2022/04/12 11:05:53;;;;;;;13.05;7.70;;;18.30;86.30;;;;;;4996880;28;20080;-86
2022/04/12 11:08:38;;;;;;;13.63;8.57;;;;;;;;;;4995873;28;20044;-85
2022/04/12 11:11:36;;;;;;;11.25;6.63;;;;;;;;;;4991581;28;20397;-86
2022/04/12 11:14:21;;;;;;;12.13;7.75;;;;;;;;;;4992280;28;20061;-88
2022/04/12 11:17:12;;;;;;;12.60;7.22;;;;;;;;;;4993486;28;20089;-86
2022/04/12 11:19:58;;;;;;;12.50;7.60;;;;;;;;;;4993387;28;20049;-86
2022/04/12 11:22:46;;;;;;;10.48;7.97;;;;;;;;;;4993026;28;20045;-84
2022/04/12 11:25:30;;;;;;;10.02;7.30;;;;;;;;;;4979698;28;20046;-85
2022/04/12 11:28:20;;;;;;;9.82;7.18;;;19.20;91.30;;;;;;4993313;28;20041;-86
2022/04/12 11:31:07;;;;;;;9.02;6.88;;;;;;;;;;4980434;28;20409;-84
2022/04/12 11:33:52;;;;;;;10.52;7.57;;;;;;;;;;4993052;28;20093;-84
2022/04/12 11:36:57;;;;;;;11.50;7.72;;;19.20;83.60;;;;;;4994018;28;20130;-87
2022/04/12 11:39:44;;;;;;;15.85;8.00;;;19.20;82.80;;;;;;4994752;28;20053;-86
2022/04/12 11:42:29;;;;;;;11.88;7.05;;;19.10;83.00;;;;;;4973973;28;20053;-88
2022/04/12 11:45:14;;;;;;;11.07;7.57;;;;;;;;;;4975290;28;20046;-87
2022/04/12 11:48:10;;;;;;;11.57;7.35;;;19.20;83.00;;;;;;4976433;28;20057;-86
2022/04/12 11:50:56;;;;;;;16.73;7.78;;;19.20;82.30;;;;;;4976071;28;20070;-87
2022/04/12 11:53:50;;;;;;;10.88;7.22;;;19.30;81.20;;;;;;4988551;28;20068;-86
2022/04/12 11:56:36;;;;;;;12.15;6.55;;;;;;;;;;4993893;28;20057;-87
2022/04/12 11:59:23;;;;;;;10.30;6.82;;;;;;;;;;4994600;28;20045;-87
2022/04/12 12:02:08;;;;;;;13.27;7.50;;;;;;;;;;4994447;28;20053;-87
2022/04/12 12:04:57;;;;;;;9.32;6.82;;;19.70;80.10;;;;;;4993654;28;20081;-88
2022/04/12 12:07:42;;;;;;;9.95;6.53;;;;;;;;;;4991581;28;20059;-87
2022/04/12 12:10:30;;;;;;;10.38;7.07;;;;;;;;;;4993409;28;20045;-89
2022/04/12 12:13:15;;;;;;;10.95;6.95;;;;;;;;;;4993632;28;20134;-89
2022/04/12 12:16:00;;;;;;;10.80;6.90;;;;;;;;;;4992171;28;20045;-89
2022/04/12 12:18:46;;;;;;;14.18;7.57;;;;;;;;;;4993231;28;20042;-88
2022/04/12 12:21:31;;;;;;;11.57;7.40;;;;;;;;;;4992947;28;20101;-87
2022/04/12 12:24:16;;;;;;;11.13;7.10;;;;;;;;;;4993824;28;20125;-85
2022/04/12 12:27:00;;;;;;;11.40;7.38;;;;;;;;;;4993970;28;20549;-86
2022/04/12 12:29:46;;;;;;;13.60;7.20;;;19.80;77.60;;;;;;4993218;28;20053;-88
2022/04/12 12:32:33;;;;;;;12.88;8.13;;;19.90;76.60;;;;;;4992986;28;20037;-87
2022/04/12 12:35:20;;;;;;;13.35;8.13;;;;;;;;;;4998084;28;20505;-87
2022/04/12 12:38:11;;;;;;;15.27;8.38;;;20.00;75.80;;;;;;4996807;28;20041;-88
2022/04/12 12:40:57;;;;;;;13.25;7.72;;;20.00;75.90;;;;;;4996268;28;20104;-87
2022/04/12 12:43:42;;;;;;;11.73;7.82;;;;;;;;;;4994152;28;20052;-87
2022/04/12 12:46:34;;;;;;;12.55;7.82;;;;;;;;;;4992248;28;20102;-88
2022/04/12 12:49:25;;;;;;;17.88;8.15;;;;;;;;;;4988346;28;20060;-86
2022/04/12 12:52:14;;;;;;;13.85;8.55;;;20.20;75.10;;;;;;5004288;28;20124;-86
2022/04/12 12:55:00;;;;;;;18.27;8.45;;;;;;;;;;4995075;28;20118;-87
2022/04/12 12:57:47;;;;;;;14.00;7.90;;;20.60;74.80;;;;;;4992853;28;20033;-86
2022/04/12 13:00:32;;;;;;;13.02;7.95;;;20.80;73.70;;;;;;5004193;28;20088;-90
2022/04/12 13:03:17;;;;;;;15.27;8.85;;;20.90;72.80;;;;;;4980894;28;20065;-87
2022/04/12 13:06:02;;;;;;;14.63;8.90;;;20.90;72.10;;;;;;5008847;28;20561;-87
2022/04/12 13:08:47;;;;;;;15.65;8.20;;;;;;;;;;4992476;28;20262;-87
2022/04/12 13:11:34;;;;;;;14.50;9.00;;;20.80;72.60;;;;;;4993467;28;20173;-87
2022/04/12 13:14:18;;;;;;;14.25;9.30;;;;;;;;;;4992733;28;20097;-87
2022/04/12 13:17:03;;;;;;;18.83;9.55;;;;;;;;;;4994148;28;20057;-89
2022/04/12 13:19:48;;;;;;;14.50;8.02;;;;;;;;;;4992191;28;20125;-86
2022/04/12 13:22:33;;;;;;;14.27;9.02;;;;;;;;;;4992823;28;20093;-87
2022/04/12 13:25:18;;;;;;;14.15;8.48;;;20.60;74.40;;;;;;4975633;28;20046;-86
2022/04/12 13:28:03;;;;;;;15.45;9.35;;;;;;;;;;4973666;28;20120;-86
2022/04/12 13:30:49;;;;;;;15.02;9.55;;;;;;;;;;4978743;28;20053;-85
2022/04/12 13:33:34;;;;;;;15.93;9.23;;;;;;;;;;4993520;28;20061;-85
2022/04/12 13:36:18;;;;;;;12.63;8.52;;;20.00;73.60;;;;;;4972801;28;20443;-85
2022/04/12 13:39:04;;;;;;;14.80;7.10;;;20.10;74.10;;;;;;4974515;28;20065;-85
2022/04/12 13:41:49;;;;;;;12.75;7.10;;;;;;;;;;4991877;28;20104;-86
2022/04/12 13:44:34;;;;;;;14.50;7.65;;;20.40;73.80;;;;;;4992343;28;20485;-85
2022/04/12 13:47:19;;;;;;;12.95;7.65;;;;;;;;;;4993047;28;20107;-86
2022/04/12 13:50:03;;;;;;;11.23;6.88;;;20.10;72.50;;;;;;4972502;28;20066;-86
2022/04/12 13:52:50;;;;;;;10.90;6.90;;;20.10;69.40;;;;;;4958744;28;20434;-88
2022/04/12 13:55:35;;;;;;;11.55;6.88;;;;;;;;;;4959392;28;20061;-86
2022/04/12 13:58:20;;;;;;;12.63;6.80;;;;;;;;;;4972800;28;20097;-86
2022/04/12 14:01:20;;;;;;;13.10;7.35;;;;;;;;;;4973387;28;20090;-93
2022/04/12 14:04:04;;;;;;;10.25;6.63;;;;;;;;;;4974803;28;20069;-86
2022/04/12 14:06:50;;;;;;;13.48;7.60;;;20.20;70.10;;;;;;4977533;28;20606;-86
2022/04/12 14:09:35;;;;;;;10.85;6.95;;;;;;;;;;4989572;28;20045;-87
2022/04/12 14:12:19;;;;;;;13.55;7.55;;;;;;;;;;4992571;28;20395;-88
2022/04/12 14:15:07;;;;;;;11.57;6.72;;;;;;;;;;4993848;28;20113;-87
2022/04/12 14:17:52;;;;;;;10.93;7.15;;;;;;;;;;4993890;28;20463;-86
2022/04/12 14:20:38;;;;;;;18.02;8.02;;;;;;;;;;4991697;28;20046;-89
2022/04/12 14:23:23;;;;;;;19.77;7.65;;;;;;;;;;4993347;28;20041;-87
2022/04/12 14:26:36;;;;;;;14.05;8.02;;;21.50;67.70;;;;;;4988708;28;20045;-95
2022/04/12 14:33:58;;;;;;;13.65;6.72;;;;;;;;;;4978825;28;20130;-91
2022/04/12 14:36:23;;;;;;;12.05;7.63;;;;;;;;;;4978294;28;20070;-94
2022/04/12 14:40:17;;;;;;;12.20;7.32;;;21.90;66.10;;;;;;4988403;28;20074;-92
2022/04/12 14:43:02;;;;;;;12.18;6.97;;;;;;;;;;4983298;28;20092;-87
2022/04/12 14:45:48;;;;;;;11.93;6.88;;;;;;;;;;4985465;28;20046;-88
2022/04/12 14:48:33;;;;;;;13.10;6.75;;;;;;;;;;4990942;28;20450;-85
2022/04/12 14:51:18;;;;;;;15.32;7.32;;;;;;;;;;4989442;28;20088;-86
2022/04/12 14:54:02;;;;;;;14.23;7.68;;;21.70;67.60;;;;;;4991367;28;20550;-88
2022/04/12 14:56:47;;;;;;;14.88;7.22;;;;;;;;;;4995350;28;20525;-89
2022/04/12 14:59:32;;;;;;;12.48;5.93;;;21.90;68.90;;;;;;5012317;28;20041;-86
2022/04/12 15:02:17;;;;;;;13.82;6.65;;;;;;;;;;5011286;28;20536;-87
2022/04/12 15:05:02;;;;;;;10.00;6.32;;;;;;;;;;4997376;28;20049;-86
2022/04/12 15:07:46;;;;;;;13.63;5.75;;;;;;;;;;5011276;28;20497;-86
2022/04/12 15:10:31;;;;;;;10.48;6.13;;;;;;;;;;5011229;28;20084;-86
2022/04/12 15:13:18;;;;;;;9.02;5.45;;;21.80;63.70;;;;;;5011274;28;20120;-89
2022/04/12 15:16:07;;;;;;;12.90;5.43;;;21.90;66.10;;;;;;4997602;28;20037;-87
2022/04/12 15:18:53;;;;;;;8.55;5.40;;;21.90;63.30;;;;;;4991448;28;20096;-87
2022/04/12 15:21:40;;;;;;;7.80;5.10;;;;;;;;;;4993041;28;20093;-88
2022/04/12 15:24:25;;;;;;;10.10;5.13;;;;;;;;;;4995138;28;20112;-88
2022/04/12 15:27:10;;;;;;;11.32;4.95;;;;;;;;;;4994448;28;20219;-87
2022/04/12 15:29:55;;;;;;;12.63;4.22;;;;;;;;;;4994434;28;20112;-87
2022/04/12 15:32:40;;;;;;;7.65;4.68;;;;;;;;;;4995007;28;20062;-88
2022/04/12 15:35:24;;;;;;;9.88;4.68;;;;;;;;;;4981433;28;20537;-89
2022/04/12 15:38:10;;;;;;;10.25;5.15;;;;;;;;;;4994459;28;20493;-87
2022/04/12 15:40:54;;;;;;;12.80;4.72;;;;;;;;;;4994461;28;20045;-90
2022/04/12 15:43:40;;;;;;;10.45;4.72;;;21.10;65.80;;;;;;4981416;28;20061;-87
2022/04/12 15:46:24;;;;;;;11.13;5.10;;;21.40;65.70;;;;;;4981271;28;20033;-87
2022/04/12 15:49:11;;;;;;;9.32;5.05;;;21.30;63.60;;;;;;4980135;28;20065;-88
2022/04/12 15:52:22;;;;;;;9.27;5.53;;;21.30;63.70;;;;;;4982712;28;20122;-90
2022/04/12 15:55:06;;;;;;;7.90;4.97;;;21.30;68.10;;;;;;4981644;28;20077;-88
2022/04/12 15:57:51;;;;;;;12.10;5.55;;;;;;;;;;4981011;28;20045;-89
2022/04/12 16:00:36;;;;;;;9.80;5.50;;;;;;;;;;4994327;28;20118;-88
2022/04/12 16:03:20;;;;;;;9.23;5.10;;;;;;;;;;4994807;28;20445;-86
2022/04/12 16:06:07;;;;;;;8.68;4.55;;;;;;;;;;4994070;28;20401;-88
2022/04/12 16:08:52;;;;;;;10.68;4.13;;;;;;;;;;4994249;28;20041;-88
2022/04/12 16:11:37;;;;;;;9.32;5.25;;;;;;;;;;4994342;28;20041;-89
2022/04/12 16:14:22;;;;;;;11.85;6.65;;;;;;;;;;4994031;28;20041;-88
2022/04/12 16:17:10;;;;;;;11.45;6.82;;;;;;;;;;4993557;28;20394;-89
2022/04/12 16:19:56;;;;;;;11.50;6.22;;;;;;;;;;4995085;28;20049;-90
2022/04/12 16:22:41;;;;;;;11.82;6.80;;;;;;;;;;4994009;28;20127;-88
2022/04/12 16:25:26;;;;;;;13.27;6.50;;;;;;;;;;4980478;28;20045;-89
2022/04/12 16:28:16;;;;;;;13.40;6.95;;;;;;;;;;4993455;28;20041;-89
2022/04/12 16:31:01;;;;;;;11.07;6.07;;;;;;;;;;4993459;28;20122;-88